Time;durP1;ratioP1;P1;durP2;ratioP2;P2;SDS_P1;SDS_P2;PMS_P1;PMS_P2;Temp;Humidity;BMP_temperature;BMP_pressure;BME280_temperature;BME280_humidity;BME280_pressure;Samples;Min_cycle;Max_cycle;Signal;HPM_P1;HPM_P2
2022/03/05 00:02:02;;;;;;;11.43;5.72;;;0.20;99.90;;;;;;5018099;28;20120;-74
2022/03/05 00:04:27;;;;;;;11.30;5.95;;;0.10;99.90;;;;;;5051632;28;20448;-74
2022/03/05 00:06:53;;;;;;;12.60;6.30;;;0.20;99.90;;;;;;5034822;28;20045;-75
2022/03/05 00:09:19;;;;;;;13.68;6.57;;;0.20;99.90;;;;;;5034203;28;20041;-74
2022/03/05 00:11:44;;;;;;;10.13;6.10;;;0.20;99.90;;;;;;5050383;28;20394;-75
2022/03/05 00:14:10;;;;;;;13.20;6.05;;;0.20;99.90;;;;;;5034609;28;20049;-74
2022/03/05 00:16:36;;;;;;;14.77;6.82;;;0.10;99.90;;;;;;5034691;28;20080;-74
2022/03/05 00:19:02;;;;;;;11.40;6.03;;;0.10;99.90;;;;;;5033797;28;20040;-74
2022/03/05 00:21:28;;;;;;;13.40;5.95;;;0.10;99.90;;;;;;5034919;28;20053;-74
2022/03/05 00:23:53;;;;;;;12.13;5.90;;;0.10;99.90;;;;;;5034151;28;20513;-74
2022/03/05 00:26:19;;;;;;;12.15;6.57;;;-0.10;99.90;;;;;;5016780;28;20044;-75
2022/03/05 00:28:45;;;;;;;13.73;6.20;;;-0.10;99.90;;;;;;5034688;28;20037;-74
2022/03/05 00:31:10;;;;;;;12.77;6.82;;;0.00;99.90;;;;;;5034526;28;20555;-75
2022/03/05 00:33:36;;;;;;;12.02;6.57;;;0.10;99.90;;;;;;5033751;28;20049;-75
2022/03/05 00:36:03;;;;;;;12.48;6.88;;;0.10;99.90;;;;;;5033854;28;20045;-75
2022/03/05 00:38:28;;;;;;;13.23;7.43;;;0.10;99.90;;;;;;5034059;28;20037;-74
2022/03/05 00:40:54;;;;;;;12.70;6.80;;;0.00;99.90;;;;;;5051315;28;20048;-75
2022/03/05 00:43:19;;;;;;;12.10;6.50;;;0.00;99.90;;;;;;5034105;28;20037;-74
2022/03/05 00:45:45;;;;;;;11.90;6.53;;;0.50;99.90;;;;;;5034360;28;20406;-74
2022/03/05 00:48:11;;;;;;;13.82;7.05;;;-0.30;99.90;;;;;;5051281;28;20087;-74
2022/03/05 00:50:36;;;;;;;16.40;7.32;;;-0.10;99.90;;;;;;5034454;28;20033;-74
2022/03/05 00:53:02;;;;;;;12.80;6.95;;;-0.20;99.90;;;;;;5033951;28;20399;-75
2022/03/05 00:55:28;;;;;;;12.75;6.95;;;0.00;99.90;;;;;;5033005;28;20489;-75
2022/03/05 00:57:54;;;;;;;13.00;6.68;;;-0.10;99.90;;;;;;5017956;28;20359;-75
2022/03/05 01:00:19;;;;;;;14.18;7.03;;;0.00;99.90;;;;;;5016559;28;20044;-75
2022/03/05 01:02:45;;;;;;;14.25;6.45;;;-0.10;99.90;;;;;;5038063;28;20398;-75
2022/03/05 01:05:11;;;;;;;20.25;7.97;;;0.00;99.90;;;;;;5055744;28;20037;-75
2022/03/05 01:07:37;;;;;;;15.27;7.25;;;-0.50;99.90;;;;;;5037619;28;20123;-75
2022/03/05 01:10:04;;;;;;;13.07;7.80;;;-0.20;99.90;;;;;;5021473;28;20055;-75
2022/03/05 01:12:29;;;;;;;16.30;7.53;;;-0.30;99.90;;;;;;5037905;28;20495;-75
2022/03/05 01:14:55;;;;;;;15.27;7.20;;;-0.20;99.90;;;;;;5055189;28;20044;-75
2022/03/05 01:17:21;;;;;;;11.60;6.75;;;-0.20;99.90;;;;;;5037708;28;20040;-75
2022/03/05 01:19:46;;;;;;;13.15;8.07;;;-0.20;99.90;;;;;;5037517;28;20108;-76
2022/03/05 01:22:12;;;;;;;14.05;7.55;;;0.00;99.90;;;;;;5037089;28;20125;-75
2022/03/05 01:24:38;;;;;;;13.38;6.75;;;-0.50;99.90;;;;;;5038026;28;20052;-75
2022/03/05 01:27:04;;;;;;;12.02;7.10;;;-0.10;99.90;;;;;;5038067;28;20045;-75
2022/03/05 01:29:29;;;;;;;12.32;6.78;;;-0.20;99.90;;;;;;5036800;28;20489;-75
2022/03/05 01:31:55;;;;;;;13.77;7.60;;;-0.40;99.90;;;;;;5037624;28;20456;-75
2022/03/05 01:34:21;;;;;;;14.27;7.20;;;;;;;;;;5037506;28;20121;-75
2022/03/05 01:36:47;;;;;;;15.15;7.28;;;-0.40;99.90;;;;;;5036794;28;20048;-75
2022/03/05 01:39:14;;;;;;;13.75;7.22;;;;;;;;;;5036896;28;20053;-75
2022/03/05 01:41:41;;;;;;;12.52;6.53;;;;;;;;;;5037515;28;20128;-75
2022/03/05 01:44:07;;;;;;;12.63;7.00;;;;;;;;;;5036691;28;20041;-75
2022/03/05 01:46:35;;;;;;;11.40;6.50;;;-0.20;99.90;;;;;;5037562;28;20375;-75
2022/03/05 01:49:06;;;;;;;12.52;6.65;;;-0.40;99.90;;;;;;5037210;28;20044;-75
2022/03/05 01:51:32;;;;;;;12.30;6.97;;;;;;;;;;5054576;28;20107;-75
2022/03/05 01:53:58;;;;;;;15.57;6.97;;;;;;;;;;5036942;28;20045;-75
2022/03/05 01:56:25;;;;;;;10.95;6.28;;;-0.30;99.90;;;;;;5045986;28;20042;-75
2022/03/05 01:58:52;;;;;;;12.85;7.00;;;-0.40;99.90;;;;;;5049804;28;20049;-75
2022/03/05 02:01:25;;;;;;;12.73;6.40;;;-0.30;99.90;;;;;;5036083;28;20044;-75
2022/03/05 02:03:51;;;;;;;14.27;6.70;;;;;;;;;;5036428;28;20052;-75
2022/03/05 02:06:18;;;;;;;15.98;7.45;;;-0.30;99.90;;;;;;5036819;28;20052;-75
2022/03/05 02:08:44;;;;;;;13.40;6.70;;;;;;;;;;5054918;28;20396;-75
2022/03/05 02:11:10;;;;;;;11.00;6.53;;;;;;;;;;5036156;28;20047;-75
2022/03/05 02:13:36;;;;;;;12.18;6.90;;;;;;;;;;5036179;28;20047;-75
2022/03/05 02:16:03;;;;;;;12.70;8.93;;;;;;;;;;5018029;28;20057;-75
2022/03/05 02:18:29;;;;;;;13.15;8.18;;;;;;;;;;5033959;28;20042;-75
2022/03/05 02:20:55;;;;;;;12.18;6.90;;;-0.30;99.90;;;;;;5034898;28;20038;-75
2022/03/05 02:23:21;;;;;;;14.50;6.78;;;;;;;;;;5016808;28;20048;-75
2022/03/05 02:26:13;;;;;;;13.32;7.43;;;-0.40;99.90;;;;;;5032972;28;20469;-75
2022/03/05 02:28:39;;;;;;;15.48;7.75;;;;;;;;;;5033553;28;20056;-76
2022/03/05 02:31:06;;;;;;;12.07;7.47;;;;;;;;;;5036719;28;20052;-75
2022/03/05 02:33:32;;;;;;;13.00;7.50;;;;;;;;;;5035966;28;20481;-76
2022/03/05 02:35:58;;;;;;;12.25;6.57;;;;;;;;;;5036746;28;20433;-75
2022/03/05 02:38:24;;;;;;;13.23;6.90;;;;;;;;;;5036657;28;20438;-75
2022/03/05 02:40:51;;;;;;;12.93;6.78;;;-0.40;99.90;;;;;;5019035;28;20041;-75
2022/03/05 02:43:18;;;;;;;13.02;6.72;;;-0.50;99.90;;;;;;5054162;28;20056;-75
2022/03/05 02:45:45;;;;;;;12.98;7.30;;;;;;;;;;5036250;28;20045;-75
2022/03/05 02:48:13;;;;;;;12.00;6.80;;;-0.50;99.90;;;;;;5054183;28;20045;-75
2022/03/05 02:50:40;;;;;;;12.63;7.03;;;-0.50;99.90;;;;;;5036025;28;20097;-75
2022/03/05 02:53:06;;;;;;;14.07;8.10;;;;;;;;;;5018992;28;20978;-75
2022/03/05 02:55:33;;;;;;;12.32;6.70;;;-0.50;99.90;;;;;;5019752;28;20494;-75
2022/03/05 02:57:59;;;;;;;13.20;7.32;;;;;;;;;;5035782;28;20053;-75
2022/03/05 03:00:26;;;;;;;10.82;7.03;;;;;;;;;;5035309;28;20048;-75
2022/03/05 03:02:52;;;;;;;12.90;6.28;;;;;;;;;;5035866;28;20052;-75
2022/03/05 03:05:18;;;;;;;11.10;6.75;;;;;;;;;;5035942;28;20206;-75
2022/03/05 03:07:44;;;;;;;14.15;8.32;;;-0.60;99.90;;;;;;5035221;28;20127;-75
2022/03/05 03:10:12;;;;;;;15.00;7.43;;;-0.60;99.90;;;;;;5035858;28;20051;-75
2022/03/05 03:12:38;;;;;;;15.30;7.63;;;;;;;;;;5053842;28;20045;-75
2022/03/05 03:15:06;;;;;;;15.40;8.40;;;-0.60;99.90;;;;;;5034812;28;20052;-75
2022/03/05 03:17:43;;;;;;;13.52;7.60;;;-0.60;99.90;;;;;;5035960;28;20095;-75
2022/03/05 03:20:14;;;;;;;13.73;8.15;;;-0.50;99.90;;;;;;5035232;28;20048;-75
2022/03/05 03:22:40;;;;;;;14.40;6.85;;;;;;;;;;5034927;28;20049;-75
2022/03/05 03:25:06;;;;;;;15.70;7.60;;;;;;;;;;5035617;28;20045;-75
2022/03/05 03:27:32;;;;;;;14.68;7.85;;;;;;;;;;5036049;28;20385;-75
2022/03/05 03:29:58;;;;;;;14.45;7.88;;;;;;;;;;5034685;28;20048;-74
2022/03/05 03:32:24;;;;;;;15.32;9.02;;;;;;;;;;5035425;28;20072;-74
2022/03/05 03:34:50;;;;;;;15.43;7.80;;;;;;;;;;5035220;28;20047;-74
2022/03/05 03:37:17;;;;;;;13.45;7.13;;;;;;;;;;5034410;28;20049;-74
2022/03/05 03:39:43;;;;;;;17.05;8.05;;;;;;;;;;5034931;28;20056;-74
2022/03/05 03:42:09;;;;;;;13.90;7.70;;;;;;;;;;5034482;28;20127;-74
2022/03/05 03:44:35;;;;;;;14.20;7.53;;;;;;;;;;5019316;28;20168;-75
2022/03/05 03:47:01;;;;;;;13.90;6.88;;;;;;;;;;4999056;28;20049;-74
2022/03/05 03:49:27;;;;;;;14.05;6.75;;;;;;;;;;5005480;28;20442;-74
2022/03/05 03:51:53;;;;;;;14.60;8.20;;;;;;;;;;5034935;28;20085;-74
2022/03/05 03:54:19;;;;;;;13.48;8.00;;;;;;;;;;5034841;28;20083;-74
2022/03/05 03:56:45;;;;;;;12.10;6.55;;;;;;;;;;5052271;28;20063;-74
2022/03/05 03:59:11;;;;;;;14.82;8.27;;;;;;;;;;5034777;28;20049;-74
2022/03/05 04:01:37;;;;;;;15.00;8.27;;;;;;;;;;5035487;28;20045;-74
2022/03/05 04:04:03;;;;;;;14.15;8.30;;;;;;;;;;5033538;28;20116;-74
2022/03/05 04:08:41;;;;;;;14.77;7.93;;;;;;;;;;5052602;28;20037;-74
2022/03/05 04:09:15;;;;;;;12.60;7.75;;;;;;;;;;5052682;28;20120;-74
2022/03/05 04:11:41;;;;;;;14.32;8.32;;;;;;;;;;5051757;28;20120;-74
2022/03/05 04:14:07;;;;;;;15.82;8.57;;;;;;;;;;5027730;28;20084;-74
2022/03/05 04:16:33;;;;;;;17.48;9.98;;;;;;;;;;5015140;28;20072;-73
2022/03/05 04:18:59;;;;;;;15.07;9.18;;;;;;;;;;5013980;28;20047;-74
2022/03/05 04:21:25;;;;;;;13.60;7.90;;;;;;;;;;5014686;28;20083;-74
2022/03/05 04:23:51;;;;;;;17.33;8.05;;;;;;;;;;5014744;28;20045;-73
2022/03/05 04:26:17;;;;;;;13.43;7.10;;;;;;;;;;5031703;28;20486;-73
2022/03/05 04:28:43;;;;;;;13.20;7.30;;;;;;;;;;5014625;28;20034;-73
2022/03/05 04:31:09;;;;;;;20.08;8.68;;;;;;;;;;5014785;28;20120;-73
2022/03/05 04:33:35;;;;;;;26.08;14.98;;;;;;;;;;5031532;28;20048;-73
2022/03/05 04:36:01;;;;;;;17.88;11.75;;;;;;;;;;4997914;28;20106;-73
2022/03/05 04:38:27;;;;;;;16.88;11.02;;;;;;;;;;5014171;28;20489;-73
2022/03/05 04:40:53;;;;;;;16.10;8.57;;;;;;;;;;5034709;28;20048;-73
2022/03/05 04:43:19;;;;;;;12.60;6.43;;;;;;;;;;5033978;28;20041;-73
2022/03/05 04:45:45;;;;;;;13.55;7.70;;;;;;;;;;5033310;28;20132;-73
2022/03/05 04:48:11;;;;;;;17.05;7.57;;;;;;;;;;5034200;28;20132;-72
2022/03/05 04:50:38;;;;;;;12.43;7.30;;;;;;;;;;5052143;28;20321;-73
2022/03/05 04:53:04;;;;;;;17.17;10.77;;;;;;;;;;5033425;28;20053;-73
2022/03/05 04:55:30;;;;;;;17.40;11.45;;;;;;;;;;5034313;28;20041;-73
2022/03/05 04:57:56;;;;;;;21.63;14.15;;;;;;;;;;5033814;28;20041;-73
2022/03/05 05:00:22;;;;;;;16.20;10.82;;;;;;;;;;5033191;28;20043;-73
2022/03/05 05:02:48;;;;;;;24.23;16.00;;;;;;;;;;5027519;28;20175;-72
2022/03/05 05:05:14;;;;;;;20.48;13.00;;;;;;;;;;5011788;28;20421;-73
2022/03/05 05:07:40;;;;;;;19.23;12.68;;;;;;;;;;5028840;28;20462;-72
2022/03/05 05:10:07;;;;;;;21.42;13.07;;;;;;;;;;5052040;28;20052;-72
2022/03/05 05:12:33;;;;;;;19.77;11.38;;;;;;;;;;5027868;28;20126;-72
2022/03/05 05:14:59;;;;;;;23.50;11.10;;;;;;;;;;5031376;28;20098;-72
2022/03/05 05:17:25;;;;;;;14.00;9.07;;;;;;;;;;5051749;28;20120;-72
2022/03/05 05:19:51;;;;;;;18.02;11.48;;;;;;;;;;5033667;28;20076;-72
2022/03/05 05:22:17;;;;;;;15.77;9.90;;;;;;;;;;5032957;28;20512;-73
2022/03/05 05:24:43;;;;;;;20.35;12.95;;;;;;;;;;5033332;28;20037;-72
2022/03/05 05:27:09;;;;;;;21.30;15.02;;;;;;;;;;5033700;28;20052;-73
2022/03/05 05:29:35;;;;;;;20.65;13.40;;;;;;;;;;5033094;28;20045;-72
2022/03/05 05:32:01;;;;;;;23.23;14.93;;;;;;;;;;5033830;28;20037;-72
2022/03/05 05:34:27;;;;;;;18.20;11.60;;;;;;;;;;5033613;28;20090;-72
2022/03/05 05:36:53;;;;;;;24.67;15.75;;;;;;;;;;5033329;28;20072;-72
2022/03/05 05:39:20;;;;;;;29.88;15.13;;;;;;;;;;5033514;28;20064;-72
2022/03/05 05:41:46;;;;;;;22.35;12.98;;;;;;;;;;5032978;28;20394;-72
2022/03/05 05:44:12;;;;;;;16.13;10.50;;;;;;;;;;5033723;28;20151;-72
2022/03/05 05:46:39;;;;;;;25.85;15.10;;;;;;;;;;5033755;28;20049;-72
2022/03/05 05:49:05;;;;;;;22.35;12.27;;;;;;;;;;5035375;28;20037;-72
2022/03/05 05:51:32;;;;;;;26.63;13.85;;;;;;;;;;5037498;28;20040;-72
2022/03/05 05:53:58;;;;;;;27.20;14.77;;;;;;;;;;5036961;28;20053;-72
2022/03/05 05:56:24;;;;;;;25.27;14.25;;;;;;;;;;5036576;28;20041;-72
2022/03/05 05:58:50;;;;;;;59.95;30.52;;;;;;;;;;5037052;28;20047;-72
2022/03/05 06:01:17;;;;;;;38.22;20.92;;;;;;;;;;5054952;28;20052;-72
2022/03/05 06:03:44;;;;;;;42.72;25.10;;;;;;;;;;5036490;28;20409;-72
2022/03/05 06:06:11;;;;;;;35.33;19.98;;;;;;;;;;5036805;28;20080;-72
2022/03/05 06:08:37;;;;;;;23.20;13.20;;;;;;;;;;5020806;28;20127;-72
2022/03/05 06:11:03;;;;;;;17.00;9.00;;;;;;;;;;5019805;28;20504;-72
2022/03/05 06:13:29;;;;;;;15.32;10.00;;;;;;;;;;5019966;28;20055;-72
2022/03/05 06:15:55;;;;;;;15.80;9.57;;;;;;;;;;5037286;28;20393;-72
2022/03/05 06:18:21;;;;;;;12.18;8.07;;;;;;;;;;5035996;28;20044;-72
2022/03/05 06:20:48;;;;;;;14.13;8.38;;;;;;;;;;5036858;28;20040;-72
2022/03/05 06:23:14;;;;;;;12.38;7.70;;;;;;;;;;5036625;28;20056;-72
2022/03/05 06:25:40;;;;;;;14.68;9.65;;;;;;;;;;5035994;28;20477;-72
2022/03/05 06:28:06;;;;;;;13.85;7.43;;;;;;;;;;5036724;28;20040;-72
2022/03/05 06:30:32;;;;;;;17.35;7.72;;;;;;;;;;5036458;28;20512;-72
2022/03/05 06:32:58;;;;;;;14.25;7.40;;;;;;;;;;5035648;28;20052;-72
2022/03/05 06:35:24;;;;;;;13.25;7.18;;;;;;;;;;5036666;28;20076;-72
2022/03/05 06:37:50;;;;;;;12.27;6.93;;;;;;;;;;5036232;28;20088;-72
2022/03/05 06:40:16;;;;;;;20.73;15.43;;;;;;;;;;5036103;28;20476;-72
2022/03/05 06:42:45;;;;;;;24.77;14.02;;;;;;;;;;5036075;28;20489;-72
2022/03/05 06:45:11;;;;;;;24.83;13.80;;;;;;;;;;5035332;28;20049;-71
2022/03/05 06:47:37;;;;;;;21.65;11.07;;;;;;;;;;5036673;28;20048;-71
2022/03/05 06:50:04;;;;;;;16.67;8.27;;;;;;;;;;5054284;28;20052;-72
2022/03/05 06:52:30;;;;;;;14.65;10.88;;;;;;;;;;5035287;28;20049;-72
2022/03/05 06:54:57;;;;;;;11.30;7.05;;;;;;;;;;5036322;28;20120;-72
2022/03/05 06:57:23;;;;;;;13.25;8.07;;;;;;;;;;5035908;28;20048;-72
2022/03/05 06:59:50;;;;;;;14.18;6.53;;;;;;;;;;5052413;28;20440;-72
2022/03/05 07:02:16;;;;;;;11.75;6.22;;;;;;;;;;5036257;28;20102;-72
2022/03/05 07:04:42;;;;;;;12.80;6.57;;;;;;;;;;5035955;28;20048;-72
2022/03/05 07:07:08;;;;;;;9.80;5.40;;;;;;;;;;5035083;28;20069;-72
2022/03/05 07:09:34;;;;;;;10.98;5.60;;;;;;;;;;5036303;28;20044;-72
2022/03/05 07:12:00;;;;;;;18.95;11.77;;;;;;;;;;5035543;28;20049;-72
2022/03/05 07:14:26;;;;;;;22.42;15.02;;;;;;;;;;5052809;28;20059;-72
2022/03/05 07:16:53;;;;;;;11.43;6.32;;;;;;;;;;5053804;28;20037;-72
2022/03/05 07:19:19;;;;;;;14.00;7.80;;;;;;;;;;5035703;28;20086;-72
2022/03/05 07:21:45;;;;;;;14.88;7.40;;;;;;;;;;5018698;28;20041;-72
2022/03/05 07:24:11;;;;;;;15.18;7.32;;;;;;;;;;5035188;28;20509;-72
2022/03/05 07:26:37;;;;;;;11.55;6.40;;;;;;;;;;5053556;28;20036;-71
2022/03/05 07:29:03;;;;;;;12.20;6.32;;;;;;;;;;5034006;28;20045;-72
2022/03/05 07:31:29;;;;;;;12.30;6.82;;;;;;;;;;5035417;28;20041;-72
2022/03/05 07:33:55;;;;;;;11.48;6.55;;;;;;;;;;5033963;28;20053;-72
2022/03/05 07:36:22;;;;;;;13.98;6.95;;;;;;;;;;5030198;28;20033;-72
2022/03/05 07:38:48;;;;;;;14.93;7.47;;;;;;;;;;5025218;28;20052;-72
2022/03/05 07:41:14;;;;;;;13.15;6.85;;;;;;;;;;5015732;28;20053;-71
2022/03/05 07:43:40;;;;;;;15.23;6.90;;;;;;;;;;5025138;28;20091;-72
2022/03/05 07:46:06;;;;;;;11.70;6.72;;;;;;;;;;5052963;28;20044;-72
2022/03/05 07:48:33;;;;;;;14.73;7.32;;;;;;;;;;5035309;28;20206;-72
2022/03/05 07:51:00;;;;;;;12.77;7.00;;;;;;;;;;5035173;28;20107;-71
2022/03/05 07:53:27;;;;;;;12.05;6.57;;;;;;;;;;5032396;28;20048;-72
2022/03/05 07:55:53;;;;;;;14.88;6.20;;;;;;;;;;5031076;28;20048;-72
2022/03/05 07:58:19;;;;;;;11.95;6.82;;;;;;;;;;5032331;28;20041;-72
2022/03/05 08:00:45;;;;;;;15.02;8.18;;;;;;;;;;5031753;28;20401;-72
2022/03/05 08:03:11;;;;;;;14.60;6.95;;;;;;;;;;5015124;28;20489;-72
2022/03/05 08:05:37;;;;;;;24.13;13.40;;;;;;;;;;5031994;28;20509;-72
2022/03/05 08:08:03;;;;;;;24.23;12.27;;;;;;;;;;5032019;28;20485;-72
2022/03/05 08:10:29;;;;;;;19.67;10.77;;;;;;;;;;5029202;28;20049;-73
2022/03/05 08:12:56;;;;;;;11.27;6.38;;;;;;;;;;5031270;28;20049;-73
2022/03/05 08:15:22;;;;;;;11.98;7.18;;;;;;;;;;5031889;28;20047;-73
2022/03/05 08:17:48;;;;;;;12.20;7.32;;;0.80;99.90;;;;;;5014674;28;20051;-73
2022/03/05 08:20:14;;;;;;;14.43;8.00;;;;;;;;;;5013658;28;20036;-72
2022/03/05 08:22:40;;;;;;;13.68;6.93;;;;;;;;;;5031072;28;20459;-72
2022/03/05 08:25:06;;;;;;;12.85;7.68;;;;;;;;;;5030048;28;20049;-72
2022/03/05 08:27:32;;;;;;;14.68;7.18;;;;;;;;;;5004956;28;20049;-74
2022/03/05 08:29:58;;;;;;;12.45;7.68;;;;;;;;;;5032087;28;20098;-72
2022/03/05 08:32:24;;;;;;;20.25;12.07;;;;;;;;;;5045650;28;20055;-73
2022/03/05 08:34:50;;;;;;;18.08;10.02;;;;;;;;;;5029484;28;20040;-73
2022/03/05 08:37:16;;;;;;;14.98;7.18;;;;;;;;;;5030492;28;20037;-73
2022/03/05 08:39:42;;;;;;;14.18;7.68;;;;;;;;;;5020614;28;20049;-72
2022/03/05 08:42:09;;;;;;;16.92;8.57;;;;;;;;;;5016535;28;20073;-71
2022/03/05 08:44:35;;;;;;;16.90;9.95;;;;;;;;;;5028040;28;20057;-73
2022/03/05 08:47:01;;;;;;;18.65;10.90;;;;;;;;;;5015295;28;20048;-72
2022/03/05 08:49:27;;;;;;;13.75;7.68;;;1.40;99.90;;;;;;5014600;28;20700;-72
2022/03/05 08:51:53;;;;;;;15.50;8.45;;;1.60;99.90;;;;;;5028999;28;20041;-73
2022/03/05 08:54:20;;;;;;;22.20;12.75;;;;;;;;;;5030746;28;20072;-72
2022/03/05 08:56:46;;;;;;;13.70;7.45;;;;;;;;;;5030450;28;20040;-72
2022/03/05 08:59:12;;;;;;;18.77;9.52;;;;;;;;;;5029338;28;20106;-72
2022/03/05 09:01:38;;;;;;;13.02;6.85;;;;;;;;;;5030769;28;20045;-72
2022/03/05 09:04:04;;;;;;;13.48;7.25;;;2.00;99.90;;;;;;5015120;28;20378;-72
2022/03/05 09:06:30;;;;;;;14.38;8.10;;;2.20;99.90;;;;;;5029608;28;20044;-72
2022/03/05 09:08:57;;;;;;;14.30;8.07;;;;;;;;;;5041249;28;20041;-72
2022/03/05 09:11:23;;;;;;;15.07;8.45;;;;;;;;;;5013651;28;20056;-73
2022/03/05 09:13:50;;;;;;;14.90;8.27;;;;;;;;;;5028871;28;20052;-72
2022/03/05 09:16:16;;;;;;;17.77;8.75;;;;;;;;;;5030151;28;20040;-73
2022/03/05 09:18:42;;;;;;;16.75;8.23;;;;;;;;;;5031685;28;20402;-72
2022/03/05 09:21:09;;;;;;;17.25;9.82;;;;;;;;;;5030723;28;20048;-71
2022/03/05 09:23:35;;;;;;;17.13;9.43;;;;;;;;;;5053150;28;20057;-71
2022/03/05 09:26:01;;;;;;;15.68;9.05;;;;;;;;;;5034307;28;20095;-71
2022/03/05 09:28:27;;;;;;;14.27;7.95;;;;;;;;;;5033845;28;20423;-71
2022/03/05 09:30:53;;;;;;;17.88;8.25;;;;;;;;;;5034419;28;20135;-72
2022/03/05 09:33:22;;;;;;;16.15;8.40;;;;;;;;;;5033393;28;20041;-72
2022/03/05 09:35:48;;;;;;;17.45;8.38;;;;;;;;;;5033546;28;20053;-72
2022/03/05 09:38:15;;;;;;;16.98;9.52;;;;;;;;;;5034586;28;20121;-72
2022/03/05 09:40:41;;;;;;;16.08;8.93;;;;;;;;;;5033931;28;20053;-71
2022/03/05 09:43:07;;;;;;;15.93;9.90;;;;;;;;;;5032082;28;20056;-72
2022/03/05 09:45:33;;;;;;;21.05;8.63;;;;;;;;;;5034746;28;20400;-72
2022/03/05 09:47:59;;;;;;;16.48;8.45;;;;;;;;;;5016696;28;20044;-73
2022/03/05 09:50:28;;;;;;;21.40;9.25;;;;;;;;;;5034939;28;20098;-74
2022/03/05 09:52:55;;;;;;;17.65;9.35;;;;;;;;;;5018468;28;20114;-74
2022/03/05 09:55:21;;;;;;;17.85;8.68;;;;;;;;;;5033845;28;20124;-73
2022/03/05 09:57:47;;;;;;;17.90;7.95;;;;;;;;;;5033771;28;20135;-74
2022/03/05 10:00:13;;;;;;;17.48;8.27;;;;;;;;;;5052420;28;20134;-73
2022/03/05 10:02:39;;;;;;;18.05;8.77;;;;;;;;;;5033710;28;20045;-74
2022/03/05 10:05:26;;;;;;;18.05;9.32;;;;;;;;;;5034645;28;20486;-74
2022/03/05 10:08:10;;;;;;;17.23;8.90;;;;;;;;;;5033776;28;20174;-73
2022/03/05 10:10:43;;;;;;;15.07;8.05;;;;;;;;;;5036203;28;20049;-74
2022/03/05 10:13:22;;;;;;;20.38;9.82;;;;;;;;;;5036292;28;20037;-74
2022/03/05 10:15:49;;;;;;;19.38;10.48;;;;;;;;;;5036497;28;20486;-75
2022/03/05 10:18:15;;;;;;;19.67;9.93;;;;;;;;;;5035445;28;20168;-74
2022/03/05 10:20:50;;;;;;;16.73;9.95;;;;;;;;;;5019927;28;20106;-74
2022/03/05 10:23:17;;;;;;;19.13;8.85;;;;;;;;;;5035585;28;20658;-74
2022/03/05 10:25:43;;;;;;;19.33;9.45;;;;;;;;;;5035469;28;20489;-75
2022/03/05 10:28:09;;;;;;;16.17;9.05;;;;;;;;;;5035837;28;20393;-73
2022/03/05 10:30:40;;;;;;;15.85;8.65;;;;;;;;;;5035635;28;20120;-75
2022/03/05 10:33:07;;;;;;;17.67;9.95;;;;;;;;;;5035978;28;20075;-75
2022/03/05 10:35:33;;;;;;;19.63;9.50;;;;;;;;;;5035770;28;20037;-74
2022/03/05 10:37:59;;;;;;;18.65;9.15;;;;;;;;;;5034006;28;20045;-74
2022/03/05 10:40:27;;;;;;;18.23;8.52;;;;;;;;;;5035275;28;20136;-74
2022/03/05 10:42:53;;;;;;;20.95;10.75;;;;;;;;;;5036095;28;20059;-73
2022/03/05 10:45:19;;;;;;;19.85;10.18;;;;;;;;;;5035170;28;20049;-73
2022/03/05 10:47:46;;;;;;;18.05;9.30;;;;;;;;;;5036043;28;20051;-74
2022/03/05 10:50:15;;;;;;;17.90;9.10;;;;;;;;;;5035057;28;20152;-73
2022/03/05 10:52:45;;;;;;;20.30;9.90;;;;;;;;;;5035637;28;20045;-74
2022/03/05 10:55:18;;;;;;;18.45;10.75;;;;;;;;;;5035202;28;20037;-73
2022/03/05 10:57:57;;;;;;;16.38;8.52;;;;;;;;;;5034579;28;20128;-74
2022/03/05 11:00:23;;;;;;;19.10;9.85;;;;;;;;;;5034615;28;20041;-74
2022/03/05 11:02:50;;;;;;;16.33;9.00;;;;;;;;;;5035430;28;20045;-74
2022/03/05 11:05:17;;;;;;;20.02;9.13;;;;;;;;;;5034322;28;20045;-73
2022/03/05 11:07:44;;;;;;;19.63;9.73;;;;;;;;;;5035681;28;20040;-75
2022/03/05 11:10:10;;;;;;;18.23;8.82;;;4.80;99.90;;;;;;5018409;28;20490;-74
2022/03/05 11:12:38;;;;;;;19.25;9.52;;;4.80;99.90;;;;;;5052886;28;20459;-74
2022/03/05 11:15:08;;;;;;;20.55;9.63;;;4.70;99.90;;;;;;5034659;28;20478;-73
2022/03/05 11:17:34;;;;;;;17.10;8.50;;;;;;;;;;5035914;28;20044;-74
2022/03/05 11:20:00;;;;;;;19.30;10.60;;;;;;;;;;5033852;28;20048;-74
2022/03/05 11:22:27;;;;;;;23.95;10.40;;;4.80;99.90;;;;;;5034806;28;20482;-75
2022/03/05 11:24:53;;;;;;;17.27;8.50;;;;;;;;;;5034884;28;20509;-77
2022/03/05 11:27:19;;;;;;;20.35;9.88;;;;;;;;;;5035143;28;20036;-74
2022/03/05 11:29:52;;;;;;;18.42;9.52;;;;;;;;;;5035520;28;20186;-75
2022/03/05 11:32:18;;;;;;;18.10;9.93;;;4.80;99.90;;;;;;5035384;28;20049;-75
2022/03/05 11:34:50;;;;;;;18.08;9.40;;;5.30;99.90;;;;;;5033844;28;20033;-74
2022/03/05 11:37:16;;;;;;;21.35;10.20;;;;;;;;;;5034698;28;20082;-74
2022/03/05 11:39:42;;;;;;;19.77;10.02;;;;;;;;;;5034304;28;20083;-74
2022/03/05 11:42:09;;;;;;;19.38;9.50;;;;;;;;;;5033865;28;20056;-74
2022/03/05 11:44:40;;;;;;;20.42;10.88;;;5.30;99.90;;;;;;5034816;28;20120;-73
2022/03/05 11:47:23;;;;;;;18.70;9.48;;;5.20;99.90;;;;;;5033299;28;20079;-74
2022/03/05 11:49:58;;;;;;;19.73;9.95;;;5.30;99.90;;;;;;5034351;28;20040;-74
2022/03/05 11:52:39;;;;;;;20.38;9.23;;;5.40;99.90;;;;;;5034921;28;20049;-74
2022/03/05 11:55:14;;;;;;;19.80;9.75;;;5.50;99.90;;;;;;5034267;28;20067;-74
2022/03/05 11:58:05;;;;;;;18.88;10.02;;;5.60;99.90;;;;;;5049848;28;20384;-74
2022/03/05 12:00:33;;;;;;;17.85;10.10;;;5.60;99.90;;;;;;5008725;28;20045;-73
2022/03/05 12:03:01;;;;;;;18.92;10.55;;;5.60;99.90;;;;;;5034398;28;20071;-72
2022/03/05 12:05:38;;;;;;;16.58;9.30;;;5.60;99.90;;;;;;5031407;28;20065;-74
2022/03/05 12:08:09;;;;;;;17.92;10.35;;;5.60;99.90;;;;;;5033804;28;20090;-75
2022/03/05 12:10:38;;;;;;;17.73;9.65;;;;;;;;;;5033438;28;20045;-76
2022/03/05 12:13:09;;;;;;;20.60;10.60;;;5.80;99.90;;;;;;5034660;28;20045;-77
2022/03/05 12:15:43;;;;;;;16.92;9.27;;;5.80;99.90;;;;;;5034540;28;20432;-77
2022/03/05 12:18:14;;;;;;;19.92;9.98;;;5.90;99.90;;;;;;5034320;28;20104;-79
2022/03/05 12:20:44;;;;;;;17.27;10.55;;;5.90;99.90;;;;;;5034129;28;20037;-78
2022/03/05 12:23:17;;;;;;;18.40;10.45;;;5.80;99.90;;;;;;5032733;28;20044;-77
2022/03/05 12:25:46;;;;;;;19.35;10.80;;;6.00;99.90;;;;;;5031460;28;20049;-77
2022/03/05 12:28:25;;;;;;;19.42;10.35;;;6.10;99.90;;;;;;5034254;28;20088;-78
2022/03/05 12:30:58;;;;;;;17.42;8.60;;;5.70;99.90;;;;;;5033325;28;20393;-77
2022/03/05 12:33:24;;;;;;;21.98;11.52;;;;;;;;;;5017625;28;20041;-77
2022/03/05 12:35:50;;;;;;;19.85;10.75;;;6.00;99.90;;;;;;5034573;28;20481;-78
2022/03/05 12:38:20;;;;;;;21.98;10.63;;;6.10;99.90;;;;;;5033606;28;20086;-77
2022/03/05 12:40:47;;;;;;;19.83;11.18;;;;;;;;;;5034257;28;20097;-77
2022/03/05 12:43:13;;;;;;;19.48;10.30;;;;;;;;;;5017764;28;20129;-77
2022/03/05 12:45:40;;;;;;;19.08;11.05;;;;;;;;;;5051581;28;20037;-77
2022/03/05 12:48:18;;;;;;;16.52;9.85;;;6.10;99.90;;;;;;5034541;28;20037;-76
2022/03/05 12:50:49;;;;;;;18.65;9.45;;;6.30;99.90;;;;;;5033381;28;20033;-77
2022/03/05 12:53:16;;;;;;;16.77;9.13;;;6.20;99.90;;;;;;5034165;28;20491;-77
2022/03/05 12:55:55;;;;;;;19.48;10.25;;;6.50;99.90;;;;;;5034386;28;20049;-77
2022/03/05 12:58:29;;;;;;;16.80;8.30;;;6.40;99.90;;;;;;5033256;28;20045;-77
2022/03/05 13:00:57;;;;;;;22.85;10.82;;;6.00;99.90;;;;;;5033981;28;20496;-77
2022/03/05 13:03:25;;;;;;;22.10;10.68;;;6.20;99.90;;;;;;5034058;28;20049;-77
2022/03/05 13:05:52;;;;;;;19.23;11.27;;;6.20;99.90;;;;;;5033558;28;20052;-77
2022/03/05 13:08:18;;;;;;;20.45;10.77;;;;;;;;;;5034214;28;20516;-77
2022/03/05 13:10:46;;;;;;;23.35;11.70;;;6.20;99.90;;;;;;5033875;28;20120;-77
2022/03/05 13:13:13;;;;;;;87.22;35.78;;;;;;;;;;5016490;28;20087;-76
2022/03/05 13:15:41;;;;;;;32.55;13.93;;;6.20;99.90;;;;;;5034332;28;20398;-76
2022/03/05 13:18:14;;;;;;;46.85;20.90;;;6.20;99.90;;;;;;5033927;28;20442;-76
2022/03/05 13:20:40;;;;;;;110.07;44.47;;;;;;;;;;5049829;28;20044;-77
2022/03/05 13:23:06;;;;;;;46.08;20.23;;;6.10;99.90;;;;;;5034069;28;20127;-76
2022/03/05 13:25:48;;;;;;;22.27;12.63;;;6.30;99.90;;;;;;5034186;28;20141;-76
2022/03/05 13:28:20;;;;;;;17.52;10.00;;;6.60;99.90;;;;;;5033600;28;20099;-76
2022/03/05 13:30:51;;;;;;;18.10;10.82;;;6.60;99.90;;;;;;5017234;28;20045;-76
2022/03/05 13:33:39;;;;;;;20.13;10.48;;;6.60;99.90;;;;;;5033107;28;20060;-76
2022/03/05 13:36:18;;;;;;;17.88;9.85;;;6.70;99.90;;;;;;5034176;28;20434;-76
2022/03/05 13:38:46;;;;;;;21.33;10.30;;;6.60;99.90;;;;;;5033838;28;20452;-76
2022/03/05 13:41:19;;;;;;;19.42;10.93;;;6.70;99.90;;;;;;5016572;28;20135;-76
2022/03/05 13:43:46;;;;;;;19.27;10.40;;;;;;;;;;5050269;28;20041;-76
2022/03/05 13:46:12;;;;;;;22.60;11.07;;;;;;;;;;5051396;28;20460;-77
2022/03/05 13:48:49;;;;;;;18.15;10.98;;;6.50;99.90;;;;;;5016909;28;20048;-76
2022/03/05 13:51:18;;;;;;;18.80;11.30;;;6.60;99.90;;;;;;5033561;28;20494;-76